Airfield :
LOGIN :

Register | Disclaimer

   EN    FR    IT 

 










Legend :    VFR   Marginal VFR   IFR   Intensive IFR   Very Intensive IFR
Visi :
Ceiling :
>= 8 km
>= 3000ft
5 to 8 km
1000 to 3000 ft
1500m to 5 km
500 to 1000 ft
800 to 1500m
200 to 500 ft
< 800m
< 200 ft
Symbols :   Thunderstorms  Fog  Heavy snow  Heavy precipitations  Wind > 20 kt
SIGMETs :     Misc.  Thunderstorms  Icing  Turbulence  Mountain Waves  Volcanic Ashes






- Airport Elevation : 404 ft
- IATA code : ECN


LCEN - Ercan International

CURRENT METAR :
  • 071220Z 12014KT 9999 FEW025TCU BKN030 19/11 Q1013 NOSIG RMK RWY11 12010KT

EXPIRED METARs :
  • 071150Z 03007KT 320V110 9999 FEW025TCU SCT030 21/09 Q1013 NOSIG RMK RWY11 03007KT 330V080
  • 071120Z 36008KT 310V030 9999 SCT025 20/09 Q1013 NOSIG RMK RWY11 35007KT 310V030
  • 071050Z 02010KT 340V050 9999 SCT025 20/09 Q1014 NOSIG RMK RWY11 36008KT
  • 071020Z 03009KT 9999 SCT025 21/11 Q1014 NOSIG RMK RWY11 27004KT
  • 070950Z 30007KT 260V340 9999 SCT025 21/08 Q1014 NOSIG RMK RWY11 32007KT 290V360

TAF TAF LCEN
Valid from the 07 at 12:00 until the 08 at 12:00 UTC


071040Z 0712/0812 29015KT 9999 SCT025
PROB30
TEMPO 0712/0716 5000 SHRA FEW020CB BKN025 BKN080



MET'MAP, your aeronautical weather chart ! - Copyright ORBIFLY December 2007 - Disclaimer

ORBIFLY MET'MAP TEAM :

Programming & Development : Alexandra Zaïnal
Concept & original design : Baudouin d'Aumeries
Assistance for programming : Marc-Olivier Méhu
Technical & hardware support : Manuel Goepfert

Contact : metmap@orbifly.com




SOURCES & CREDITS :

   NOAA